createdAt,value
2022-09-15T00:01:21.873Z,25.10
2022-09-15T00:06:21.824Z,23.90
2022-09-15T00:08:51.859Z,22.60
2022-09-15T00:11:22.715Z,25.73
2022-09-15T00:13:52.464Z,23.23
2022-09-15T00:16:23.492Z,25.13
2022-09-15T00:18:53.609Z,23.80
2022-09-15T00:21:23.630Z,25.35
2022-09-15T00:23:52.448Z,23.77
2022-09-15T00:28:51.236Z,24.08
2022-09-15T00:31:22.471Z,25.25
2022-09-15T00:33:56.320Z,24.10
2022-09-15T00:36:26.931Z,25.02
2022-09-15T00:38:55.822Z,22.83
2022-09-15T00:41:25.439Z,21.75
2022-09-15T00:43:56.645Z,20.63
2022-09-15T00:46:27.147Z,20.98
2022-09-15T00:49:01.132Z,22.75
2022-09-15T00:51:35.255Z,21.08
2022-09-15T00:54:08.295Z,23.30
2022-09-15T00:56:39.916Z,23.73
2022-09-15T00:59:18.277Z,22.70
2022-09-15T01:01:48.422Z,23.25
2022-09-15T01:04:18.485Z,17.42
2022-09-15T01:06:51.379Z,20.55
2022-09-15T01:09:23.689Z,20.00
2022-09-15T01:11:52.555Z,15.50
2022-09-15T01:14:21.021Z,18.15
2022-09-15T01:17:02.626Z,17.98
2022-09-15T01:20:09.110Z,18.67
2022-09-15T01:22:49.032Z,17.33
2022-09-15T01:25:35.889Z,17.65
2022-09-15T01:28:37.626Z,15.60
2022-09-15T01:31:12.180Z,15.55
2022-09-15T01:33:46.393Z,15.30
2022-09-15T01:36:21.367Z,17.70
2022-09-15T01:39:01.161Z,14.77
2022-09-15T01:41:38.579Z,16.75
2022-09-15T01:44:10.313Z,14.95
2022-09-15T01:46:47.294Z,15.50
2022-09-15T01:49:21.328Z,14.07
2022-09-15T01:51:52.962Z,16.30
2022-09-15T01:54:23.484Z,16.02
2022-09-15T01:56:52.120Z,14.30
2022-09-15T01:59:23.265Z,17.33
2022-09-15T02:02:00.233Z,16.25
2022-09-15T02:04:34.539Z,14.20
2022-09-15T02:07:12.264Z,13.00
2022-09-15T02:09:46.966Z,13.70
2022-09-15T02:12:22.179Z,12.20
2022-09-15T02:14:58.191Z,12.57
2022-09-15T02:17:32.735Z,12.35
2022-09-15T02:20:10.433Z,13.20
2022-09-15T02:22:41.018Z,12.20
2022-09-15T02:25:12.850Z,14.27
2022-09-15T02:27:45.917Z,13.77
2022-09-15T02:30:17.285Z,12.40
2022-09-15T02:32:54.540Z,12.48
2022-09-15T02:35:25.259Z,11.15
2022-09-15T02:37:54.489Z,12.50
2022-09-15T02:40:23.913Z,12.98
2022-09-15T02:42:56.978Z,13.93
2022-09-15T02:45:31.706Z,14.10
2022-09-15T02:48:01.752Z,13.70
2022-09-15T02:50:31.176Z,13.02
2022-09-15T02:52:59.685Z,13.25
2022-09-15T02:55:29.259Z,14.05
2022-09-15T02:57:57.794Z,13.57
2022-09-15T03:00:26.963Z,12.73
2022-09-15T03:02:56.364Z,12.23
2022-09-15T03:05:28.137Z,15.48
2022-09-15T03:07:58.024Z,12.52
2022-09-15T03:10:29.865Z,12.65
2022-09-15T03:12:58.589Z,11.15
2022-09-15T03:15:28.184Z,11.80
2022-09-15T03:17:58.348Z,15.20
2022-09-15T03:20:30.455Z,11.35
2022-09-15T03:22:59.156Z,15.57
2022-09-15T03:25:28.120Z,15.00
2022-09-15T03:27:56.601Z,11.88
2022-09-15T03:30:25.252Z,12.68
2022-09-15T03:32:53.744Z,13.15
2022-09-15T03:35:22.897Z,11.38
2022-09-15T03:37:53.325Z,11.43
2022-09-15T03:40:21.957Z,13.30
2022-09-15T03:42:50.462Z,11.38
2022-09-15T03:45:19.133Z,10.65
2022-09-15T03:47:47.577Z,10.98
2022-09-15T03:50:17.371Z,10.20
2022-09-15T03:52:46.660Z,9.45
2022-09-15T03:55:18.293Z,10.00
2022-09-15T03:57:46.858Z,9.90
2022-09-15T04:00:16.303Z,8.68
2022-09-15T04:02:44.735Z,9.27
2022-09-15T04:05:14.019Z,11.50
2022-09-15T04:07:42.893Z,9.60
2022-09-15T04:12:41.495Z,8.55
2022-09-15T04:15:10.965Z,9.85
2022-09-15T04:17:39.687Z,9.23
2022-09-15T04:20:09.442Z,9.70
2022-09-15T04:22:38.170Z,9.73
2022-09-15T04:25:07.561Z,10.20
2022-09-15T04:27:36.561Z,7.30
2022-09-15T04:30:10.809Z,8.93
2022-09-15T04:32:39.910Z,10.45
2022-09-15T04:37:37.248Z,9.10
2022-09-15T04:40:06.329Z,8.85
2022-09-15T04:42:34.864Z,10.55
2022-09-15T04:45:03.469Z,9.18
2022-09-15T04:50:02.010Z,8.23
2022-09-15T04:52:32.539Z,10.60
2022-09-15T04:55:01.066Z,9.10
2022-09-15T04:57:29.574Z,8.15
2022-09-15T04:59:58.183Z,9.63
2022-09-15T05:02:27.777Z,9.45
2022-09-15T05:04:57.835Z,9.70
2022-09-15T05:07:26.578Z,11.80
2022-09-15T05:09:55.186Z,10.32
2022-09-15T05:12:23.722Z,9.07
2022-09-15T05:14:52.346Z,10.55
2022-09-15T05:17:24.065Z,11.18
2022-09-15T05:19:57.563Z,11.35
2022-09-15T05:22:27.824Z,13.77
2022-09-15T05:25:06.202Z,10.73
2022-09-15T05:30:42.471Z,11.85
2022-09-15T05:34:27.185Z,8.65
2022-09-15T05:36:58.124Z,10.90
2022-09-15T05:39:55.755Z,10.02
2022-09-15T05:42:24.620Z,10.30
2022-09-15T05:44:53.101Z,14.52
2022-09-15T05:47:21.613Z,13.50
2022-09-15T05:49:50.030Z,11.85
2022-09-15T05:52:18.525Z,11.52
2022-09-15T05:54:48.433Z,14.73
2022-09-15T05:57:17.105Z,11.40
2022-09-15T05:59:45.883Z,17.73
2022-09-15T06:04:43.141Z,10.73
2022-09-15T06:07:11.787Z,10.13
2022-09-15T06:09:40.309Z,11.27
2022-09-15T06:12:10.349Z,9.88
2022-09-15T06:14:38.921Z,7.93
2022-09-15T06:17:07.368Z,9.23
2022-09-15T06:19:36.026Z,11.38
2022-09-15T06:22:04.500Z,10.60
2022-09-15T06:24:33.154Z,7.43
2022-09-15T06:27:03.532Z,8.35
2022-09-15T06:29:33.745Z,8.18
2022-09-15T06:32:03.001Z,6.65
2022-09-15T06:34:32.863Z,7.68
2022-09-15T06:37:05.327Z,10.52
2022-09-15T06:39:35.055Z,8.38
2022-09-15T06:42:05.713Z,7.35
2022-09-15T06:44:38.022Z,9.02
2022-09-15T06:47:07.407Z,7.15
2022-09-15T06:49:38.513Z,6.85
2022-09-15T06:52:07.477Z,7.15
2022-09-15T06:57:06.517Z,8.48
2022-09-15T06:59:34.975Z,7.10
2022-09-15T07:02:05.497Z,7.97
2022-09-15T07:04:37.035Z,5.45
2022-09-15T07:07:06.397Z,6.68
2022-09-15T07:09:35.555Z,9.23
2022-09-15T07:12:04.900Z,11.27
2022-09-15T07:14:33.274Z,11.68
2022-09-15T07:17:01.830Z,13.55
2022-09-15T07:19:31.675Z,13.88
2022-09-15T07:22:00.345Z,14.35
2022-09-15T07:24:28.733Z,18.50
2022-09-15T07:26:57.303Z,15.65
2022-09-15T07:29:25.811Z,12.55
2022-09-15T07:31:54.564Z,14.63
2022-09-15T07:34:23.072Z,15.32
2022-09-15T07:36:52.973Z,14.82
2022-09-15T07:39:21.557Z,17.90
2022-09-15T07:41:50.397Z,15.15
2022-09-15T07:46:47.085Z,13.23
2022-09-15T07:49:15.747Z,15.30
2022-09-15T07:51:44.367Z,12.82
2022-09-15T07:54:17.193Z,14.82
2022-09-15T07:56:47.921Z,16.35
2022-09-15T07:59:16.555Z,17.23
2022-09-15T08:01:45.116Z,14.63
2022-09-15T08:04:13.664Z,13.77
2022-09-15T08:06:42.270Z,13.18
2022-09-15T08:09:14.739Z,14.52
2022-09-15T08:11:44.707Z,14.60
2022-09-15T08:14:13.239Z,17.38
2022-09-15T08:16:41.922Z,16.42
2022-09-15T08:21:38.704Z,15.68
2022-09-15T08:24:07.327Z,15.40
2022-09-15T08:26:38.489Z,18.80
2022-09-15T08:29:08.662Z,18.35
2022-09-15T08:31:37.337Z,18.23
2022-09-15T08:34:07.070Z,14.93
2022-09-15T08:36:35.780Z,12.82
2022-09-15T08:39:04.820Z,16.23
2022-09-15T08:41:36.767Z,13.80
2022-09-15T08:44:19.921Z,16.50
2022-09-15T08:46:53.918Z,13.13
2022-09-15T08:49:49.972Z,10.60
2022-09-15T08:52:22.733Z,14.75
2022-09-15T08:54:54.812Z,14.52
2022-09-15T08:57:26.011Z,15.18
2022-09-15T08:59:56.214Z,14.55
2022-09-15T09:02:58.331Z,14.77
2022-09-15T09:05:40.768Z,14.95
2022-09-15T09:08:32.511Z,14.85
2022-09-15T09:11:11.132Z,14.45
2022-09-15T09:13:48.784Z,14.75
2022-09-15T09:16:39.539Z,17.77
2022-09-15T09:19:33.901Z,13.82
2022-09-15T09:22:08.333Z,13.05
2022-09-15T09:24:42.543Z,16.77
2022-09-15T09:27:15.151Z,12.55
2022-09-15T09:29:51.577Z,16.52
2022-09-15T09:32:25.884Z,13.77
2022-09-15T09:35:02.353Z,13.20
2022-09-15T09:37:32.531Z,14.88
2022-09-15T09:40:01.663Z,12.95
2022-09-15T09:42:37.285Z,15.00
2022-09-15T09:45:07.686Z,14.20
2022-09-15T09:47:38.902Z,15.60
2022-09-15T09:50:36.157Z,16.35
2022-09-15T09:53:20.722Z,16.00
2022-09-15T09:55:49.319Z,13.57
2022-09-15T09:58:21.005Z,16.08
2022-09-15T10:00:50.365Z,15.05
2022-09-15T10:03:22.121Z,17.55
2022-09-15T10:06:03.825Z,14.85
2022-09-15T10:08:32.456Z,15.25
2022-09-15T10:11:06.352Z,13.98
2022-09-15T10:13:36.897Z,10.88
2022-09-15T10:16:07.927Z,12.13
2022-09-15T10:18:40.131Z,12.82
2022-09-15T10:21:11.365Z,12.52
2022-09-15T10:23:40.079Z,13.10
2022-09-15T10:26:24.018Z,14.30
2022-09-15T10:29:13.819Z,13.00
2022-09-15T10:31:44.664Z,16.00
2022-09-15T10:34:30.589Z,12.85
2022-09-15T10:37:09.699Z,19.60
2022-09-15T10:39:58.848Z,15.98
2022-09-15T10:42:42.219Z,15.77
2022-09-15T10:45:20.366Z,14.48
2022-09-15T10:48:03.376Z,16.23
2022-09-15T10:50:43.478Z,14.85
2022-09-15T10:53:18.487Z,15.38
2022-09-15T10:55:58.444Z,14.57
2022-09-15T10:58:49.753Z,15.85
2022-09-15T11:01:33.585Z,17.27
2022-09-15T11:04:20.304Z,17.75
2022-09-15T11:06:55.888Z,18.63
2022-09-15T11:09:27.283Z,16.15
2022-09-15T11:12:12.375Z,14.50
2022-09-15T11:14:51.832Z,18.27
2022-09-15T11:17:40.139Z,15.65
2022-09-15T11:20:26.183Z,16.30
2022-09-15T11:23:04.008Z,20.15
2022-09-15T11:25:36.690Z,15.10
2022-09-15T11:28:12.937Z,16.50
2022-09-15T11:30:47.869Z,14.82
2022-09-15T11:33:22.497Z,15.20
2022-09-15T11:35:56.998Z,17.83
2022-09-15T11:38:35.755Z,14.25
2022-09-15T11:44:08.505Z,13.90
2022-09-15T11:46:51.959Z,11.38
2022-09-15T11:49:24.765Z,10.95
2022-09-15T11:52:01.747Z,12.50
2022-09-15T11:54:38.936Z,12.15
2022-09-15T11:57:17.378Z,12.02
2022-09-15T11:59:52.710Z,11.85
2022-09-15T12:02:27.356Z,11.00
2022-09-15T12:05:06.698Z,14.05
2022-09-15T12:07:40.478Z,12.43
2022-09-15T12:10:19.258Z,13.75
2022-09-15T12:12:48.540Z,11.32
2022-09-15T12:15:20.033Z,14.95
2022-09-15T12:17:54.977Z,11.98
2022-09-15T12:20:26.977Z,10.20
2022-09-15T12:23:03.857Z,13.43
2022-09-15T12:25:43.480Z,12.15
2022-09-15T12:28:38.814Z,11.93
2022-09-15T12:31:25.330Z,14.98
2022-09-15T12:33:59.246Z,14.93
2022-09-15T12:36:46.547Z,13.80
2022-09-15T12:39:31.636Z,14.27
2022-09-15T12:42:23.368Z,14.45
2022-09-15T12:44:55.919Z,14.43
2022-09-15T12:47:39.342Z,14.65
2022-09-15T12:50:25.292Z,15.00
2022-09-15T12:52:58.228Z,18.30
2022-09-15T12:55:29.043Z,13.95
2022-09-15T12:58:01.406Z,12.18
2022-09-15T13:00:45.573Z,13.40
2022-09-15T13:04:23.129Z,16.65
2022-09-15T13:07:24.790Z,13.20
2022-09-15T13:10:02.366Z,12.50
2022-09-15T13:12:37.120Z,10.68
2022-09-15T13:15:13.662Z,9.18
2022-09-15T13:17:45.739Z,10.07
2022-09-15T13:20:23.387Z,13.43
2022-09-15T13:22:56.571Z,13.38
2022-09-15T13:25:29.522Z,12.00
2022-09-15T13:28:00.911Z,10.27
2022-09-15T13:30:45.821Z,11.00
2022-09-15T13:39:37.087Z,12.05
2022-09-15T13:42:25.029Z,11.35
2022-09-15T13:45:29.551Z,9.20
2022-09-15T13:48:23.269Z,10.93
2022-09-15T13:50:59.682Z,9.10
2022-09-15T13:53:45.590Z,8.73
2022-09-15T13:56:20.710Z,9.20
2022-09-15T13:59:01.598Z,8.55
2022-09-15T14:01:39.022Z,8.85
2022-09-15T14:04:13.418Z,10.45
2022-09-15T14:06:44.524Z,12.73
2022-09-15T14:09:17.119Z,19.15
2022-09-15T14:11:50.185Z,16.10
2022-09-15T14:14:35.709Z,18.88
2022-09-15T14:17:04.346Z,15.57
2022-09-15T14:19:36.817Z,15.50
2022-09-15T14:22:26.229Z,20.40
2022-09-15T14:24:56.178Z,14.30
2022-09-15T14:27:27.442Z,19.33
2022-09-15T14:29:57.990Z,21.08
2022-09-15T14:32:29.901Z,19.02
2022-09-15T14:35:20.634Z,20.20
2022-09-15T14:37:58.770Z,29.80
2022-09-15T14:40:31.056Z,26.92
2022-09-15T14:42:59.788Z,26.80
2022-09-15T14:48:30.168Z,14.43
2022-09-15T14:51:08.265Z,19.35
2022-09-15T14:53:43.828Z,17.75
2022-09-15T14:56:21.023Z,10.20
2022-09-15T14:58:54.078Z,9.38
2022-09-15T15:01:27.271Z,13.05
2022-09-15T15:04:10.396Z,15.43
2022-09-15T15:06:52.424Z,10.45
2022-09-15T15:09:26.122Z,10.55
2022-09-15T15:11:58.199Z,26.27
2022-09-15T15:14:27.348Z,9.35
2022-09-15T15:17:03.293Z,10.70
2022-09-15T15:19:34.015Z,9.65
2022-09-15T15:22:22.234Z,9.43
2022-09-15T15:24:53.384Z,10.50
2022-09-15T15:27:40.672Z,10.57
2022-09-15T15:30:36.206Z,12.82
2022-09-15T15:33:06.645Z,9.82
2022-09-15T15:35:40.431Z,12.82
2022-09-15T15:38:25.400Z,14.13
2022-09-15T15:41:01.538Z,10.27
2022-09-15T15:43:36.913Z,12.23
2022-09-15T15:46:07.739Z,8.68
2022-09-15T15:48:38.615Z,16.33
2022-09-15T15:51:11.188Z,10.45
2022-09-15T15:53:41.143Z,13.75
2022-09-15T15:56:09.769Z,14.15
2022-09-15T15:58:38.208Z,12.82
2022-09-15T16:01:06.788Z,10.95
2022-09-15T16:03:35.513Z,12.90
2022-09-15T16:06:04.293Z,11.45
2022-09-15T16:08:34.952Z,9.38
2022-09-15T16:11:05.918Z,10.20
2022-09-15T16:13:34.479Z,12.38
2022-09-15T16:16:03.590Z,10.80
2022-09-15T16:18:32.144Z,17.08
2022-09-15T16:21:00.742Z,14.05
2022-09-15T16:23:29.343Z,13.80
2022-09-15T16:26:01.556Z,18.20
2022-09-15T16:28:31.817Z,17.55
2022-09-15T16:31:01.074Z,16.13
2022-09-15T16:33:31.001Z,19.35
2022-09-15T16:36:06.926Z,19.90
2022-09-15T16:38:37.387Z,20.60
2022-09-15T16:41:13.570Z,17.63
2022-09-15T16:43:44.128Z,15.32
2022-09-15T16:46:14.347Z,22.50
2022-09-15T16:48:47.349Z,17.58
2022-09-15T16:51:27.922Z,17.70
2022-09-15T16:53:59.372Z,17.05
2022-09-15T16:56:28.415Z,15.63
2022-09-15T16:59:01.451Z,16.92
2022-09-15T17:01:30.351Z,16.35
2022-09-15T17:06:31.211Z,14.77
2022-09-15T17:08:59.943Z,16.88
2022-09-15T17:11:30.676Z,18.95
2022-09-15T17:14:03.253Z,14.18
2022-09-15T17:16:32.354Z,23.83
2022-09-15T17:19:03.241Z,15.35
2022-09-15T17:24:00.536Z,12.13
2022-09-15T17:26:32.009Z,15.23
2022-09-15T17:29:05.396Z,14.70
2022-09-15T17:31:34.664Z,18.42
2022-09-15T17:34:06.398Z,15.15
2022-09-15T17:36:37.475Z,11.68
2022-09-15T17:39:08.750Z,15.63
2022-09-15T17:41:41.851Z,14.02
2022-09-15T17:44:14.104Z,16.20
2022-09-15T17:46:43.669Z,15.73
2022-09-15T17:49:12.947Z,16.90
2022-09-15T17:51:47.054Z,16.40
2022-09-15T17:54:16.377Z,16.17
2022-09-15T17:56:45.418Z,16.88
2022-09-15T17:59:16.454Z,17.23
2022-09-15T18:01:45.813Z,18.70
2022-09-15T18:04:15.143Z,19.67
2022-09-15T18:06:49.816Z,19.50
2022-09-15T18:09:19.451Z,18.88
2022-09-15T18:11:49.257Z,19.00
2022-09-15T18:14:20.184Z,18.15
2022-09-15T18:16:49.660Z,19.48
2022-09-15T18:19:18.829Z,31.40
2022-09-15T18:21:53.215Z,23.73
2022-09-15T18:24:22.739Z,19.00
2022-09-15T18:26:52.606Z,22.00
2022-09-15T18:29:23.334Z,25.23
2022-09-15T18:31:53.171Z,20.77
2022-09-15T18:34:22.564Z,23.42
2022-09-15T18:36:51.689Z,20.77
2022-09-15T18:39:20.823Z,18.40
2022-09-15T18:41:50.178Z,19.50
2022-09-15T18:44:19.410Z,23.77
2022-09-15T18:46:50.044Z,22.30
2022-09-15T18:49:19.329Z,24.75
2022-09-15T18:51:51.468Z,20.40
2022-09-15T18:54:21.394Z,23.25
2022-09-15T18:56:51.589Z,22.83
2022-09-15T18:59:20.651Z,22.85
2022-09-15T19:01:53.392Z,24.20
2022-09-15T19:04:22.383Z,19.25
2022-09-15T19:09:20.067Z,24.92
2022-09-15T19:11:48.825Z,20.83
2022-09-15T19:14:19.231Z,18.17
2022-09-15T19:16:58.050Z,18.70
2022-09-15T19:19:27.244Z,20.08
2022-09-15T19:21:55.815Z,24.08
2022-09-15T19:24:26.627Z,23.42
2022-09-15T19:26:55.199Z,16.45
2022-09-15T19:29:23.799Z,22.42
2022-09-15T19:31:53.646Z,18.60
2022-09-15T19:34:22.460Z,21.42
2022-09-15T19:36:50.985Z,17.05
2022-09-15T19:39:19.555Z,19.77
2022-09-15T19:41:48.100Z,20.65
2022-09-15T19:44:17.197Z,17.10
2022-09-15T19:46:46.037Z,23.27
2022-09-15T19:49:16.132Z,20.20
2022-09-15T19:51:44.957Z,21.13
2022-09-15T19:54:13.519Z,20.02
2022-09-15T19:56:41.971Z,16.20
2022-09-15T19:59:11.322Z,21.35
2022-09-15T20:01:39.787Z,19.17
2022-09-15T20:04:08.437Z,20.67
2022-09-15T20:06:38.543Z,21.05
2022-09-15T20:09:08.847Z,19.67
2022-09-15T20:11:37.713Z,20.55
2022-09-15T20:16:38.687Z,21.75
2022-09-15T20:19:07.447Z,19.83
2022-09-15T20:21:49.870Z,21.23
2022-09-15T20:24:20.399Z,28.27
2022-09-15T20:26:49.575Z,24.77
2022-09-15T20:29:18.800Z,20.05
2022-09-15T20:31:47.533Z,23.17
2022-09-15T20:34:16.020Z,24.45
2022-09-15T20:36:45.946Z,23.92
2022-09-15T20:39:16.132Z,24.08
2022-09-15T20:41:45.902Z,23.13
2022-09-15T20:44:14.588Z,24.83
2022-09-15T20:46:50.670Z,20.85
2022-09-15T20:49:19.118Z,18.70
2022-09-15T20:51:51.661Z,20.02
2022-09-15T20:54:20.266Z,23.52
2022-09-15T20:56:48.685Z,21.33
2022-09-15T20:59:17.240Z,26.17
2022-09-15T21:01:46.567Z,19.35
2022-09-15T21:04:14.975Z,20.10
2022-09-15T21:06:45.534Z,19.05
2022-09-15T21:09:15.865Z,20.88
2022-09-15T21:11:44.553Z,18.48
2022-09-15T21:14:14.428Z,18.27
2022-09-15T21:16:45.729Z,21.20
2022-09-15T21:19:14.307Z,20.50
2022-09-15T21:21:42.875Z,20.00
2022-09-15T21:24:11.862Z,19.70
2022-09-15T21:26:56.753Z,16.15
2022-09-15T21:29:25.707Z,19.17
2022-09-15T21:34:28.180Z,18.20
2022-09-15T21:36:59.109Z,17.58
2022-09-15T21:39:27.726Z,16.55
2022-09-15T21:42:05.398Z,18.20
2022-09-15T21:44:34.004Z,16.80
2022-09-15T21:47:05.101Z,18.83
2022-09-15T21:49:33.736Z,14.63
2022-09-15T21:52:02.262Z,15.68
2022-09-15T21:54:31.583Z,14.13
2022-09-15T21:57:01.404Z,16.90
2022-09-15T21:59:30.045Z,14.75
2022-09-15T22:01:58.553Z,20.75
2022-09-15T22:04:26.985Z,14.77
2022-09-15T22:06:55.494Z,16.20
2022-09-15T22:09:24.003Z,14.10
2022-09-15T22:11:52.468Z,16.40
2022-09-15T22:14:22.711Z,20.25
2022-09-15T22:16:51.338Z,17.13
2022-09-15T22:19:22.961Z,20.05
2022-09-15T22:21:55.438Z,14.90
2022-09-15T22:24:24.174Z,16.65
2022-09-15T22:26:52.636Z,16.45
2022-09-15T22:29:22.686Z,13.88
2022-09-15T22:31:51.257Z,14.90
2022-09-15T22:34:19.834Z,15.82
2022-09-15T22:36:48.405Z,16.42
2022-09-15T22:39:16.783Z,15.70
2022-09-15T22:41:45.251Z,15.68
2022-09-15T22:44:19.913Z,13.18
2022-09-15T22:46:51.493Z,16.23
2022-09-15T22:49:20.039Z,15.25
2022-09-15T22:51:48.471Z,15.00
2022-09-15T22:54:17.025Z,16.05
2022-09-15T22:56:47.306Z,15.45
2022-09-15T22:59:17.189Z,19.38
2022-09-15T23:01:45.875Z,31.10
2022-09-15T23:04:16.081Z,56.60
2022-09-15T23:06:44.606Z,69.10
2022-09-15T23:09:13.472Z,68.50
2022-09-15T23:14:15.169Z,48.13
2022-09-15T23:16:44.420Z,49.10
2022-09-15T23:19:13.687Z,36.75
2022-09-15T23:21:43.764Z,44.75
2022-09-15T23:24:14.156Z,41.58
2022-09-15T23:26:42.784Z,47.35
2022-09-15T23:29:11.352Z,39.75
2022-09-15T23:31:39.980Z,40.30
2022-09-15T23:34:08.537Z,33.53
2022-09-15T23:36:37.095Z,30.63
2022-09-15T23:39:09.109Z,27.63
2022-09-15T23:41:39.159Z,28.73
2022-09-15T23:44:07.767Z,24.88
2022-09-15T23:46:36.238Z,22.17
2022-09-15T23:49:05.260Z,20.65
2022-09-15T23:51:33.617Z,21.15
2022-09-15T23:54:03.879Z,18.65
2022-09-15T23:56:34.038Z,17.50
2022-09-15T23:59:04.670Z,18.02
